createdAt,value
2019-06-26T00:00:49.804Z,13.83
2019-06-26T00:03:19.952Z,13.83
2019-06-26T00:05:52.379Z,14.43
2019-06-26T00:08:24.735Z,17.73
2019-06-26T00:10:54.362Z,18.17
2019-06-26T00:13:26.602Z,17.27
2019-06-26T00:15:55.672Z,16.80
2019-06-26T00:18:25.741Z,16.40
2019-06-26T00:20:55.668Z,15.03
2019-06-26T00:23:25.970Z,15.30
2019-06-26T00:25:55.667Z,13.40
2019-06-26T00:28:25.488Z,15.07
2019-06-26T00:30:55.236Z,14.87
2019-06-26T00:33:25.153Z,13.53
2019-06-26T00:35:55.190Z,13.83
2019-06-26T00:38:25.596Z,12.60
2019-06-26T00:40:55.341Z,12.57
2019-06-26T00:43:38.390Z,13.50
2019-06-26T00:45:56.464Z,12.57
2019-06-26T00:48:26.282Z,12.37
2019-06-26T00:50:56.106Z,12.53
2019-06-26T00:53:26.316Z,12.13
2019-06-26T00:55:56.066Z,12.87
2019-06-26T00:58:26.006Z,12.87
2019-06-26T01:00:55.885Z,11.30
2019-06-26T01:03:25.699Z,13.50
2019-06-26T01:05:55.490Z,11.50
2019-06-26T01:08:25.615Z,14.93
2019-06-26T01:10:55.277Z,15.53
2019-06-26T01:13:25.057Z,15.60
2019-06-26T01:15:54.785Z,16.37
2019-06-26T01:18:24.841Z,14.63
2019-06-26T01:20:54.777Z,13.43
2019-06-26T01:23:43.972Z,17.47
2019-06-26T01:38:41.746Z,13.53
2019-06-26T01:44:32.109Z,14.80
2019-06-26T01:47:01.998Z,14.97
2019-06-26T01:49:32.584Z,14.60
2019-06-26T01:52:02.294Z,15.43
2019-06-26T01:54:32.177Z,15.63
2019-06-26T01:57:01.933Z,13.93
2019-06-26T01:59:31.758Z,13.97
2019-06-26T02:02:01.593Z,14.87
2019-06-26T02:04:31.342Z,14.30
2019-06-26T02:07:01.580Z,15.00
2019-06-26T02:09:31.487Z,16.03
2019-06-26T02:12:01.200Z,15.63
2019-06-26T02:14:31.944Z,16.73
2019-06-26T02:17:01.991Z,15.03
2019-06-26T02:19:31.776Z,16.23
2019-06-26T02:22:01.974Z,15.93
2019-06-26T02:24:31.894Z,15.77
2019-06-26T02:27:01.637Z,16.00
2019-06-26T02:29:31.646Z,15.00
2019-06-26T02:32:01.816Z,14.60
2019-06-26T02:34:31.608Z,15.30
2019-06-26T02:37:01.649Z,15.00
2019-06-26T02:39:31.502Z,15.07
2019-06-26T02:42:01.146Z,13.63
2019-06-26T02:44:47.135Z,12.90
2019-06-26T02:47:18.299Z,15.33
2019-06-26T02:49:33.860Z,15.87
2019-06-26T02:52:03.772Z,15.27
2019-06-26T02:54:33.622Z,16.70
2019-06-26T02:57:03.776Z,15.27
2019-06-26T02:59:33.627Z,16.37
2019-06-26T03:02:03.461Z,15.47
2019-06-26T03:04:33.161Z,17.47
2019-06-26T03:07:03.152Z,17.53
2019-06-26T03:09:32.995Z,17.30
2019-06-26T03:12:02.628Z,17.07
2019-06-26T03:14:32.297Z,16.93
2019-06-26T03:17:02.058Z,19.77
2019-06-26T03:19:31.706Z,16.97
2019-06-26T03:22:01.677Z,18.23
2019-06-26T03:24:31.426Z,18.27
2019-06-26T03:27:01.081Z,17.73
2019-06-26T03:29:30.725Z,17.50
2019-06-26T03:32:00.499Z,16.83
2019-06-26T03:34:30.166Z,17.53
2019-06-26T03:36:59.935Z,17.70
2019-06-26T03:39:30.090Z,18.17
2019-06-26T03:42:00.080Z,18.57
2019-06-26T03:44:29.747Z,17.17
2019-06-26T03:46:59.526Z,19.43
2019-06-26T03:49:29.171Z,21.03
2019-06-26T03:51:59.033Z,20.80
2019-06-26T03:54:29.071Z,20.27
2019-06-26T03:56:58.716Z,22.00
2019-06-26T03:59:28.373Z,21.70
2019-06-26T04:01:58.462Z,22.00
2019-06-26T04:04:28.097Z,23.93
2019-06-26T04:06:57.741Z,24.17
2019-06-26T04:09:27.550Z,25.10
2019-06-26T04:11:57.501Z,26.50
2019-06-26T04:14:27.153Z,30.10
2019-06-26T04:16:56.901Z,31.73
2019-06-26T04:19:26.831Z,31.53
2019-06-26T04:21:56.495Z,30.43
2019-06-26T04:24:26.271Z,32.97
2019-06-26T04:26:55.940Z,33.87
2019-06-26T04:29:25.577Z,35.03
2019-06-26T04:31:55.773Z,38.10
2019-06-26T04:34:25.490Z,37.17
2019-06-26T04:36:55.373Z,37.33
2019-06-26T04:39:25.143Z,38.53
2019-06-26T04:41:55.050Z,40.27
2019-06-26T04:44:24.750Z,38.83
2019-06-26T04:46:54.530Z,40.10
2019-06-26T04:49:24.174Z,37.83
2019-06-26T04:51:56.573Z,39.73
2019-06-26T04:54:26.337Z,39.10
2019-06-26T04:56:56.040Z,40.37
2019-06-26T04:59:25.693Z,41.87
2019-06-26T05:01:55.566Z,42.87
2019-06-26T05:04:25.270Z,41.63
2019-06-26T05:06:54.939Z,41.03
2019-06-26T05:09:25.166Z,42.80
2019-06-26T05:11:54.922Z,41.33
2019-06-26T05:14:24.636Z,43.67
2019-06-26T05:16:54.716Z,43.40
2019-06-26T05:19:24.369Z,40.57
2019-06-26T05:21:53.990Z,42.63
2019-06-26T05:24:23.981Z,43.13
2019-06-26T05:26:53.982Z,43.50
2019-06-26T05:29:23.677Z,44.63
2019-06-26T05:31:53.711Z,43.57
2019-06-26T05:34:23.386Z,45.00
2019-06-26T05:36:53.069Z,44.43
2019-06-26T05:39:22.851Z,43.90
2019-06-26T05:41:52.901Z,43.70
2019-06-26T05:44:22.980Z,42.17
2019-06-26T05:46:52.922Z,44.40
2019-06-26T05:49:22.922Z,43.00
2019-06-26T05:51:52.703Z,45.87
2019-06-26T05:54:22.614Z,42.13
2019-06-26T05:56:52.644Z,44.27
2019-06-26T05:59:22.675Z,46.13
2019-06-26T06:02:11.480Z,44.47
2019-06-26T06:04:41.208Z,45.60
2019-06-26T06:07:10.949Z,43.93
2019-06-26T06:09:40.713Z,45.07
2019-06-26T06:12:29.437Z,42.50
2019-06-26T06:14:59.163Z,40.17
2019-06-26T06:17:49.589Z,43.00
2019-06-26T06:20:41.009Z,45.77
2019-06-26T06:23:43.770Z,46.77
2019-06-26T06:29:19.801Z,44.50
2019-06-26T06:32:08.705Z,44.30
2019-06-26T06:34:39.978Z,44.37
2019-06-26T06:37:09.977Z,45.53
2019-06-26T06:39:58.772Z,43.70
2019-06-26T06:42:28.820Z,41.43
2019-06-26T06:48:17.034Z,42.97
2019-06-26T06:50:51.985Z,40.20
2019-06-26T06:53:41.185Z,40.20
2019-06-26T06:56:11.489Z,36.83
2019-06-26T06:58:42.577Z,39.27
2019-06-26T07:06:52.060Z,31.90
2019-06-26T07:12:02.985Z,36.17
2019-06-26T07:14:33.627Z,36.63
2019-06-26T07:17:20.424Z,37.43
2019-06-26T07:19:58.146Z,39.37
2019-06-26T07:22:40.684Z,36.00
2019-06-26T07:25:22.208Z,34.07
2019-06-26T07:28:03.189Z,31.80
2019-06-26T07:30:44.750Z,34.50
2019-06-26T07:33:26.671Z,36.50
2019-06-26T07:36:06.945Z,37.13
2019-06-26T07:41:55.194Z,35.27
2019-06-26T07:50:44.291Z,34.23
2019-06-26T07:53:14.201Z,33.03
2019-06-26T07:56:12.831Z,31.23
2019-06-26T07:58:43.067Z,35.87
2019-06-26T08:01:12.800Z,35.77
2019-06-26T08:03:42.913Z,37.60
2019-06-26T08:06:12.749Z,37.73
2019-06-26T08:08:42.543Z,35.20
2019-06-26T08:11:12.393Z,33.97
2019-06-26T08:13:42.312Z,34.50
2019-06-26T08:16:12.473Z,33.43
2019-06-26T08:18:42.213Z,25.43
2019-06-26T08:21:13.098Z,26.37
2019-06-26T08:23:43.000Z,27.87
2019-06-26T08:26:12.807Z,32.07
2019-06-26T08:31:11.798Z,30.83
2019-06-26T08:33:41.670Z,33.70
2019-06-26T08:36:11.416Z,31.90
2019-06-26T08:38:41.554Z,27.33
2019-06-26T08:41:11.417Z,29.93
2019-06-26T08:43:41.174Z,31.10
2019-06-26T08:46:11.134Z,29.13
2019-06-26T08:48:41.157Z,30.10
2019-06-26T08:51:11.188Z,29.90
2019-06-26T08:53:41.228Z,24.00
2019-06-26T08:56:11.221Z,20.77
2019-06-26T08:58:41.266Z,20.27
2019-06-26T09:01:30.406Z,17.27
2019-06-26T09:04:00.638Z,20.57
2019-06-26T09:06:30.584Z,23.70
2019-06-26T09:09:00.470Z,18.87
2019-06-26T09:11:30.588Z,20.10
2019-06-26T09:14:00.858Z,19.23
2019-06-26T09:16:30.689Z,20.80
2019-06-26T09:19:00.932Z,25.07
2019-06-26T09:21:31.416Z,20.20
2019-06-26T09:24:01.808Z,20.80
2019-06-26T09:26:31.705Z,18.63
2019-06-26T09:29:01.821Z,17.20
2019-06-26T09:31:31.546Z,19.67
2019-06-26T09:34:01.509Z,18.20
2019-06-26T09:36:31.330Z,24.67
2019-06-26T09:39:01.447Z,26.20
2019-06-26T09:41:31.172Z,26.07
2019-06-26T09:44:00.971Z,24.20
2019-06-26T09:46:30.923Z,22.77
2019-06-26T09:49:01.064Z,20.80
2019-06-26T09:51:31.014Z,23.27
2019-06-26T09:54:02.402Z,22.77
2019-06-26T09:56:32.496Z,19.23
2019-06-26T09:59:02.513Z,18.13
2019-06-26T10:01:32.522Z,16.83
2019-06-26T10:04:02.853Z,21.07
2019-06-26T10:06:32.734Z,16.40
2019-06-26T10:09:03.114Z,16.83
2019-06-26T10:11:32.950Z,14.70
2019-06-26T10:14:03.041Z,15.63
2019-06-26T10:16:33.754Z,15.83
2019-06-26T10:19:10.302Z,15.17
2019-06-26T10:21:35.275Z,15.97
2019-06-26T10:24:05.484Z,15.43
2019-06-26T10:26:35.646Z,15.30
2019-06-26T10:29:05.743Z,17.17
2019-06-26T10:31:35.956Z,13.33
2019-06-26T10:34:09.809Z,13.17
2019-06-26T10:39:15.780Z,16.07
2019-06-26T10:41:46.127Z,15.03
2019-06-26T10:44:16.145Z,14.97
2019-06-26T10:46:46.523Z,18.80
2019-06-26T10:49:26.499Z,14.13
2019-06-26T10:51:48.144Z,18.00
2019-06-26T10:54:18.897Z,18.80
2019-06-26T10:56:49.290Z,16.00
2019-06-26T10:59:19.388Z,16.37
2019-06-26T11:01:49.712Z,16.07
2019-06-26T11:04:20.079Z,16.83
2019-06-26T11:06:50.963Z,18.03
2019-06-26T11:09:21.725Z,19.87
2019-06-26T11:12:11.944Z,17.87
2019-06-26T11:14:56.292Z,16.43
2019-06-26T11:17:32.651Z,18.83
2019-06-26T11:20:21.460Z,23.27
2019-06-26T11:23:10.206Z,23.90
2019-06-26T11:25:40.114Z,21.47
2019-06-26T11:28:29.003Z,24.30
2019-06-26T11:30:58.836Z,23.43
2019-06-26T11:33:28.453Z,24.17
2019-06-26T11:35:58.898Z,25.90
2019-06-26T11:38:28.703Z,28.10
2019-06-26T11:41:01.790Z,23.80
2019-06-26T11:43:30.175Z,24.10
2019-06-26T11:46:00.390Z,23.60
2019-06-26T11:48:50.817Z,24.77
2019-06-26T11:51:20.767Z,23.13
2019-06-26T11:53:50.781Z,19.83
2019-06-26T11:56:20.892Z,23.10
2019-06-26T11:58:50.784Z,25.53
2019-06-26T12:01:20.778Z,23.13
2019-06-26T12:04:12.478Z,20.83
2019-06-26T12:06:45.640Z,25.73
2019-06-26T12:09:32.795Z,24.57
2019-06-26T12:12:14.659Z,24.27
2019-06-26T12:14:34.838Z,24.00
2019-06-26T12:17:05.116Z,23.60
2019-06-26T12:19:35.038Z,22.30
2019-06-26T12:22:04.895Z,21.77
2019-06-26T12:24:34.766Z,20.23
2019-06-26T12:27:04.759Z,24.37
2019-06-26T12:29:34.748Z,24.07
2019-06-26T12:32:05.034Z,23.00
2019-06-26T12:34:34.995Z,21.03
2019-06-26T12:37:42.620Z,23.63
2019-06-26T12:40:12.745Z,24.10
2019-06-26T12:42:44.409Z,20.20
2019-06-26T12:45:15.082Z,18.30
2019-06-26T12:48:04.036Z,19.53
2019-06-26T12:50:52.942Z,21.87
2019-06-26T12:53:23.100Z,20.53
2019-06-26T12:55:52.973Z,20.27
2019-06-26T12:58:23.166Z,18.93
2019-06-26T13:00:54.179Z,19.30
2019-06-26T13:03:25.642Z,18.03
2019-06-26T13:05:56.760Z,17.77
2019-06-26T13:08:27.096Z,20.97
2019-06-26T13:10:57.089Z,17.13
2019-06-26T13:14:01.535Z,18.93
2019-06-26T13:19:27.283Z,15.83
2019-06-26T13:21:57.494Z,17.47
2019-06-26T13:24:47.379Z,16.13
2019-06-26T13:27:17.739Z,17.07
2019-06-26T13:30:06.684Z,14.97
2019-06-26T13:32:55.778Z,14.03
2019-06-26T13:35:26.160Z,16.13
2019-06-26T13:37:56.068Z,15.10
2019-06-26T13:40:56.708Z,16.03
2019-06-26T13:46:45.674Z,15.13
2019-06-26T13:49:16.745Z,14.20
2019-06-26T13:51:50.010Z,13.03
2019-06-26T13:54:20.244Z,15.43
2019-06-26T13:56:51.913Z,15.67
2019-06-26T13:59:21.816Z,15.53
2019-06-26T14:01:51.858Z,16.27
2019-06-26T14:04:22.334Z,16.53
2019-06-26T14:06:53.077Z,18.73
2019-06-26T14:09:23.831Z,19.10
2019-06-26T14:11:54.294Z,19.83
2019-06-26T14:14:40.948Z,17.37
2019-06-26T14:16:55.913Z,19.43
2019-06-26T14:19:26.885Z,18.53
2019-06-26T14:21:57.589Z,17.70
2019-06-26T14:24:28.289Z,18.90
2019-06-26T14:27:00.235Z,18.90
2019-06-26T14:29:33.086Z,17.87
2019-06-26T14:32:06.482Z,18.13
2019-06-26T14:34:59.050Z,18.63
2019-06-26T14:37:30.429Z,16.37
2019-06-26T14:40:04.887Z,15.93
2019-06-26T14:42:35.218Z,19.37
2019-06-26T14:45:09.800Z,17.57
2019-06-26T14:47:40.630Z,21.13
2019-06-26T14:50:12.470Z,19.90
2019-06-26T14:52:45.803Z,17.27
2019-06-26T14:55:15.021Z,16.20
2019-06-26T14:57:47.807Z,14.50
2019-06-26T15:00:19.037Z,12.77
2019-06-26T15:02:49.180Z,14.23
2019-06-26T15:05:19.366Z,13.27
2019-06-26T15:07:50.306Z,11.30
2019-06-26T15:10:21.166Z,12.10
2019-06-26T15:12:51.631Z,10.43
2019-06-26T15:15:22.210Z,11.73
2019-06-26T15:20:41.717Z,9.47
2019-06-26T15:23:12.035Z,9.30
2019-06-26T15:25:41.852Z,9.00
2019-06-26T15:28:12.190Z,10.03
2019-06-26T15:30:42.014Z,11.60
2019-06-26T15:44:09.696Z,11.00
2019-06-26T15:46:40.370Z,12.63
2019-06-26T15:49:10.208Z,14.43
2019-06-26T15:52:14.028Z,11.37
2019-06-26T15:54:49.567Z,12.60
2019-06-26T15:57:38.792Z,13.57
2019-06-26T16:00:22.539Z,16.13
2019-06-26T16:02:40.158Z,15.10
2019-06-26T16:05:10.134Z,15.83
2019-06-26T16:07:58.975Z,16.00
2019-06-26T16:10:28.954Z,14.50
2019-06-26T16:16:02.054Z,14.43
2019-06-26T16:18:33.923Z,15.10
2019-06-26T16:26:33.314Z,17.33
2019-06-26T16:29:03.450Z,15.57
2019-06-26T16:31:52.242Z,17.27
2019-06-26T16:34:22.207Z,14.73
2019-06-26T16:36:54.566Z,15.47
2019-06-26T16:39:43.365Z,17.57
2019-06-26T16:42:13.190Z,15.40
2019-06-26T16:44:43.337Z,14.53
2019-06-26T16:47:13.406Z,13.17
2019-06-26T16:49:44.465Z,13.97
2019-06-26T16:52:48.082Z,13.87
2019-06-26T16:55:05.025Z,14.00
2019-06-26T16:57:35.251Z,15.60
2019-06-26T17:00:09.923Z,13.80
2019-06-26T17:02:37.544Z,12.57
2019-06-26T17:05:07.731Z,14.50
2019-06-26T17:07:56.552Z,16.00
2019-06-26T17:10:29.161Z,14.03
2019-06-26T17:12:58.856Z,16.23
2019-06-26T17:15:30.135Z,14.87
2019-06-26T17:18:01.208Z,15.50
2019-06-26T17:23:49.831Z,14.40
2019-06-26T17:26:20.522Z,12.33
2019-06-26T17:28:51.092Z,14.50
2019-06-26T17:31:21.284Z,14.47
2019-06-26T17:34:29.382Z,13.90
2019-06-26T17:40:09.763Z,13.47
2019-06-26T17:46:06.878Z,13.60
2019-06-26T17:48:37.405Z,13.60
2019-06-26T17:51:19.019Z,13.27
2019-06-26T17:53:50.346Z,13.37
2019-06-26T17:56:20.472Z,13.10
2019-06-26T17:58:53.121Z,13.13
2019-06-26T18:01:24.127Z,12.93
2019-06-26T18:03:54.793Z,12.33
2019-06-26T18:06:25.478Z,12.07
2019-06-26T18:09:14.659Z,12.07
2019-06-26T18:11:44.642Z,11.03
2019-06-26T18:14:29.086Z,12.80
2019-06-26T18:17:21.133Z,12.87
2019-06-26T18:19:37.168Z,11.60
2019-06-26T18:22:08.519Z,13.00
2019-06-26T18:24:38.763Z,12.20
2019-06-26T18:27:28.034Z,11.73
2019-06-26T18:29:57.863Z,11.03
2019-06-26T18:32:27.766Z,12.50
2019-06-26T18:34:57.723Z,11.27
2019-06-26T18:37:46.659Z,12.60
2019-06-26T18:40:17.217Z,11.27
2019-06-26T18:42:47.405Z,10.30
2019-06-26T18:45:36.317Z,10.93
2019-06-26T18:48:06.346Z,11.10
2019-06-26T18:50:36.722Z,10.37
2019-06-26T18:53:18.517Z,10.90
2019-06-26T18:55:59.825Z,10.40
2019-06-26T18:58:41.542Z,10.73
2019-06-26T19:01:23.069Z,9.50
2019-06-26T19:03:54.110Z,9.90
2019-06-26T19:06:25.218Z,9.60
2019-06-26T19:09:14.336Z,9.20
2019-06-26T19:11:44.247Z,9.67
2019-06-26T19:14:14.102Z,9.63
2019-06-26T19:16:44.380Z,8.07
2019-06-26T19:19:14.723Z,7.37
2019-06-26T19:22:03.274Z,5.97
2019-06-26T19:24:52.225Z,7.13
2019-06-26T19:27:41.384Z,7.40
2019-06-26T19:30:30.434Z,6.67
2019-06-26T19:33:00.627Z,6.70
2019-06-26T19:35:30.791Z,6.13
2019-06-26T19:38:24.036Z,6.63
2019-06-26T19:40:53.857Z,6.03
2019-06-26T19:43:23.586Z,5.87
2019-06-26T19:45:53.984Z,5.60
2019-06-26T19:48:24.142Z,6.90
2019-06-26T19:51:12.971Z,5.97
2019-06-26T19:53:43.032Z,5.97
2019-06-26T19:59:04.099Z,6.20
2019-06-26T20:01:53.041Z,6.50
2019-06-26T20:04:22.917Z,6.67
2019-06-26T20:07:03.800Z,5.77
2019-06-26T20:09:55.463Z,5.57
2019-06-26T20:12:25.209Z,6.20
2019-06-26T20:15:32.180Z,5.80
2019-06-26T20:17:46.189Z,5.87
2019-06-26T20:20:35.074Z,6.50
2019-06-26T20:23:25.963Z,7.30
2019-06-26T20:25:55.768Z,8.23
2019-06-26T20:28:44.553Z,5.73
2019-06-26T20:33:54.982Z,5.87
2019-06-26T20:36:47.362Z,5.40
2019-06-26T20:39:36.049Z,5.90
2019-06-26T20:42:06.477Z,5.50
2019-06-26T20:44:37.010Z,5.63
2019-06-26T20:47:06.815Z,5.87
2019-06-26T20:49:55.975Z,5.80
2019-06-26T20:55:35.511Z,5.80
2019-06-26T20:58:24.293Z,6.10
2019-06-26T21:00:54.016Z,5.23
2019-06-26T21:03:24.160Z,5.23
2019-06-26T21:08:54.437Z,5.27
2019-06-26T21:12:04.682Z,5.47
2019-06-26T21:14:53.551Z,4.90
2019-06-26T21:17:42.591Z,4.87
2019-06-26T21:20:12.564Z,4.83
2019-06-26T21:23:01.502Z,6.20
2019-06-26T21:25:51.900Z,4.87
2019-06-26T21:28:41.064Z,5.27
2019-06-26T21:31:29.868Z,4.27
2019-06-26T21:34:20.081Z,5.17
2019-06-26T21:37:08.928Z,4.53
2019-06-26T21:43:07.199Z,3.80
2019-06-26T21:45:56.177Z,4.37
2019-06-26T21:48:44.969Z,3.37
2019-06-26T21:51:34.006Z,3.37
2019-06-26T21:54:22.939Z,3.77
2019-06-26T21:57:31.938Z,3.17
2019-06-26T22:00:20.841Z,3.80
2019-06-26T22:03:29.788Z,4.50
2019-06-26T22:09:17.909Z,3.20
2019-06-26T22:14:39.127Z,3.17
2019-06-26T22:17:20.111Z,4.23
2019-06-26T22:20:00.855Z,3.27
2019-06-26T22:22:42.388Z,4.10
2019-06-26T22:25:23.967Z,3.03
2019-06-26T22:28:05.530Z,2.67
2019-06-26T22:30:46.725Z,3.00
2019-06-26T22:33:28.331Z,2.70
2019-06-26T22:36:37.570Z,2.07
2019-06-26T22:39:46.632Z,1.97
2019-06-26T22:48:44.288Z,1.73
2019-06-26T22:54:32.182Z,1.87
2019-06-26T23:00:32.916Z,2.10
2019-06-26T23:05:52.122Z,2.03
2019-06-26T23:14:08.842Z,1.47
2019-06-26T23:16:49.909Z,1.73
2019-06-26T23:19:31.404Z,1.30
2019-06-26T23:22:12.830Z,1.93
2019-06-26T23:24:42.872Z,1.40
2019-06-26T23:27:31.856Z,1.63
2019-06-26T23:30:20.798Z,2.23
2019-06-26T23:42:02.150Z,1.37
2019-06-26T23:44:31.843Z,1.80
2019-06-26T23:47:06.619Z,1.30
2019-06-26T23:49:36.579Z,1.70
2019-06-26T23:52:06.329Z,1.37
2019-06-26T23:54:36.201Z,1.50
2019-06-26T23:57:05.923Z,1.93
2019-06-26T23:59:35.685Z,1.60
